Terminal Aerodrome Forecast
Issued by NWS

Home | Current Version | Previous Version | Graphics & Text | Print | Product List | Glossary On
Versions: 1 2 3 4 5 6 7 8 9 10 11 12 13 14 15
000
FTUS42 KMHX 171700 RRA
TAFOAJ
TAF
KOAJ 171742Z 1718/1818 06005KT P6SM VCSH SCT025 OVC040
      TEMPO 1720/1723 -RA SCT020 BKN035
     FM180000 05003KT P6SM VCSH OVC035
     FM180800 03005KT 5SM BR SCT005 BKN025
     FM181500 04007KT P6SM VCSH BKN035
      AMD LTD TO CLD VIS AND WIND=

USA.gov is the U.S. government's official web portal to all federal, state and local government web resources and services.